sensor_id;sensor_type;location;lat;lon;timestamp;P1;durP1;ratioP1;P2;durP2;ratioP2
41952;SDS011;63613;28.200;112.870;2023-05-10T00:00:20;18.55;;;16.42;;
41952;SDS011;63613;28.200;112.870;2023-05-10T00:02:49;18.05;;;16.30;;
41952;SDS011;63613;28.200;112.870;2023-05-10T00:05:15;19.83;;;16.95;;
41952;SDS011;63613;28.200;112.870;2023-05-10T00:07:42;18.23;;;16.40;;
41952;SDS011;63613;28.200;112.870;2023-05-10T00:10:12;17.88;;;16.13;;
41952;SDS011;63613;28.200;112.870;2023-05-10T00:12:38;17.55;;;15.85;;
41952;SDS011;63613;28.200;112.870;2023-05-10T00:15:05;16.70;;;14.85;;
41952;SDS011;63613;28.200;112.870;2023-05-10T00:17:33;17.80;;;16.00;;
41952;SDS011;63613;28.200;112.870;2023-05-10T00:20:00;17.77;;;16.02;;
41952;SDS011;63613;28.200;112.870;2023-05-10T00:22:27;17.50;;;15.82;;
41952;SDS011;63613;28.200;112.870;2023-05-10T00:25:13;17.23;;;15.52;;
41952;SDS011;63613;28.200;112.870;2023-05-10T00:27:40;16.75;;;15.05;;
41952;SDS011;63613;28.200;112.870;2023-05-10T00:30:07;17.27;;;15.43;;
41952;SDS011;63613;28.200;112.870;2023-05-10T00:32:37;16.77;;;15.10;;
41952;SDS011;63613;28.200;112.870;2023-05-10T00:35:23;15.90;;;14.30;;
41952;SDS011;63613;28.200;112.870;2023-05-10T00:37:51;16.90;;;15.30;;
41952;SDS011;63613;28.200;112.870;2023-05-10T00:40:18;16.40;;;14.90;;
41952;SDS011;63613;28.200;112.870;2023-05-10T00:42:44;15.88;;;14.13;;
41952;SDS011;63613;28.200;112.870;2023-05-10T00:45:11;16.55;;;14.63;;
41952;SDS011;63613;28.200;112.870;2023-05-10T00:47:41;16.15;;;14.45;;
41952;SDS011;63613;28.200;112.870;2023-05-10T00:50:08;16.13;;;14.48;;
41952;SDS011;63613;28.200;112.870;2023-05-10T00:52:35;15.73;;;14.20;;
41952;SDS011;63613;28.200;112.870;2023-05-10T00:55:02;17.17;;;15.45;;
41952;SDS011;63613;28.200;112.870;2023-05-10T00:57:30;14.48;;;13.07;;
41952;SDS011;63613;28.200;112.870;2023-05-10T00:59:57;16.58;;;14.88;;
41952;SDS011;63613;28.200;112.870;2023-05-10T01:02:44;15.82;;;14.20;;
41952;SDS011;63613;28.200;112.870;2023-05-10T01:05:13;14.85;;;13.15;;
41952;SDS011;63613;28.200;112.870;2023-05-10T01:07:40;15.60;;;13.93;;
41952;SDS011;63613;28.200;112.870;2023-05-10T01:10:07;15.43;;;13.55;;
41952;SDS011;63613;28.200;112.870;2023-05-10T01:12:38;14.70;;;13.30;;
41952;SDS011;63613;28.200;112.870;2023-05-10T01:15:06;14.52;;;13.13;;
41952;SDS011;63613;28.200;112.870;2023-05-10T01:17:36;13.98;;;12.68;;
41952;SDS011;63613;28.200;112.870;2023-05-10T01:20:05;14.13;;;12.68;;
41952;SDS011;63613;28.200;112.870;2023-05-10T01:22:44;14.02;;;12.80;;
41952;SDS011;63613;28.200;112.870;2023-05-10T01:39:15;13.80;;;12.50;;
41952;SDS011;63613;28.200;112.870;2023-05-10T01:44:39;12.18;;;11.05;;
41952;SDS011;63613;28.200;112.870;2023-05-10T01:47:29;12.60;;;11.50;;
41952;SDS011;63613;28.200;112.870;2023-05-10T01:50:04;12.68;;;11.38;;
41952;SDS011;63613;28.200;112.870;2023-05-10T01:52:42;13.05;;;11.85;;
41952;SDS011;63613;28.200;112.870;2023-05-10T01:55:16;13.35;;;12.15;;
41952;SDS011;63613;28.200;112.870;2023-05-10T01:57:46;12.48;;;11.25;;
41952;SDS011;63613;28.200;112.870;2023-05-10T02:00:16;13.07;;;11.48;;
41952;SDS011;63613;28.200;112.870;2023-05-10T02:02:46;11.63;;;10.52;;
41952;SDS011;63613;28.200;112.870;2023-05-10T02:05:15;12.25;;;10.93;;
41952;SDS011;63613;28.200;112.870;2023-05-10T02:07:43;11.68;;;10.60;;
41952;SDS011;63613;28.200;112.870;2023-05-10T02:10:11;11.98;;;10.95;;
41952;SDS011;63613;28.200;112.870;2023-05-10T02:12:43;13.57;;;12.20;;
41952;SDS011;63613;28.200;112.870;2023-05-10T02:15:15;10.93;;;9.90;;
41952;SDS011;63613;28.200;112.870;2023-05-10T02:17:50;12.13;;;11.13;;
41952;SDS011;63613;28.200;112.870;2023-05-10T02:20:19;11.80;;;10.70;;
41952;SDS011;63613;28.200;112.870;2023-05-10T02:22:48;11.85;;;10.75;;
41952;SDS011;63613;28.200;112.870;2023-05-10T02:25:17;11.77;;;10.63;;
41952;SDS011;63613;28.200;112.870;2023-05-10T02:27:46;11.70;;;10.60;;
41952;SDS011;63613;28.200;112.870;2023-05-10T02:30:14;11.77;;;10.68;;
41952;SDS011;63613;28.200;112.870;2023-05-10T02:32:42;11.80;;;10.80;;
41952;SDS011;63613;28.200;112.870;2023-05-10T02:35:09;11.82;;;10.70;;
41952;SDS011;63613;28.200;112.870;2023-05-10T02:37:37;11.80;;;10.70;;
41952;SDS011;63613;28.200;112.870;2023-05-10T02:40:07;11.73;;;10.60;;
41952;SDS011;63613;28.200;112.870;2023-05-10T02:42:36;11.95;;;10.85;;
41952;SDS011;63613;28.200;112.870;2023-05-10T02:45:08;11.90;;;10.80;;
41952;SDS011;63613;28.200;112.870;2023-05-10T02:47:41;11.18;;;10.13;;
41952;SDS011;63613;28.200;112.870;2023-05-10T02:50:09;10.90;;;9.98;;
41952;SDS011;63613;28.200;112.870;2023-05-10T02:52:40;10.40;;;9.32;;
41952;SDS011;63613;28.200;112.870;2023-05-10T02:55:21;10.88;;;9.77;;
41952;SDS011;63613;28.200;112.870;2023-05-10T02:57:52;9.85;;;8.90;;
41952;SDS011;63613;28.200;112.870;2023-05-10T03:00:24;10.73;;;9.73;;
41952;SDS011;63613;28.200;112.870;2023-05-10T03:02:51;10.75;;;9.75;;
41952;SDS011;63613;28.200;112.870;2023-05-10T03:05:18;11.05;;;10.02;;
41952;SDS011;63613;28.200;112.870;2023-05-10T03:07:46;9.77;;;8.88;;
41952;SDS011;63613;28.200;112.870;2023-05-10T03:10:13;10.57;;;9.05;;
41952;SDS011;63613;28.200;112.870;2023-05-10T03:18:44;12.52;;;9.25;;
41952;SDS011;63613;28.200;112.870;2023-05-10T03:21:20;10.07;;;9.15;;
41952;SDS011;63613;28.200;112.870;2023-05-10T03:24:13;11.15;;;9.93;;
41952;SDS011;63613;28.200;112.870;2023-05-10T03:26:40;10.07;;;9.07;;
41952;SDS011;63613;28.200;112.870;2023-05-10T03:29:11;10.20;;;9.13;;
41952;SDS011;63613;28.200;112.870;2023-05-10T03:31:39;10.60;;;8.93;;
41952;SDS011;63613;28.200;112.870;2023-05-10T03:34:07;9.65;;;8.73;;
41952;SDS011;63613;28.200;112.870;2023-05-10T03:36:54;9.32;;;8.52;;
41952;SDS011;63613;28.200;112.870;2023-05-10T03:39:20;9.88;;;8.90;;
41952;SDS011;63613;28.200;112.870;2023-05-10T03:41:47;8.85;;;8.05;;
41952;SDS011;63613;28.200;112.870;2023-05-10T03:44:38;8.77;;;7.97;;
41952;SDS011;63613;28.200;112.870;2023-05-10T03:47:05;9.18;;;8.30;;
41952;SDS011;63613;28.200;112.870;2023-05-10T03:49:32;8.63;;;7.82;;
41952;SDS011;63613;28.200;112.870;2023-05-10T03:51:59;8.73;;;7.97;;
41952;SDS011;63613;28.200;112.870;2023-05-10T03:54:27;8.07;;;7.28;;
41952;SDS011;63613;28.200;112.870;2023-05-10T03:56:54;7.82;;;7.13;;
41952;SDS011;63613;28.200;112.870;2023-05-10T03:59:21;8.68;;;7.70;;
41952;SDS011;63613;28.200;112.870;2023-05-10T04:01:48;8.20;;;7.40;;
41952;SDS011;63613;28.200;112.870;2023-05-10T04:04:15;8.57;;;7.85;;
41952;SDS011;63613;28.200;112.870;2023-05-10T04:06:44;8.15;;;7.30;;
41952;SDS011;63613;28.200;112.870;2023-05-10T04:09:10;7.95;;;7.15;;
41952;SDS011;63613;28.200;112.870;2023-05-10T04:11:37;8.25;;;7.38;;
41952;SDS011;63613;28.200;112.870;2023-05-10T04:14:24;8.20;;;7.38;;
41952;SDS011;63613;28.200;112.870;2023-05-10T04:16:51;8.35;;;7.53;;
41952;SDS011;63613;28.200;112.870;2023-05-10T04:19:17;7.85;;;7.05;;
41952;SDS011;63613;28.200;112.870;2023-05-10T04:21:44;7.88;;;7.10;;
41952;SDS011;63613;28.200;112.870;2023-05-10T04:24:11;7.72;;;6.93;;
41952;SDS011;63613;28.200;112.870;2023-05-10T04:26:40;8.10;;;7.32;;
41952;SDS011;63613;28.200;112.870;2023-05-10T04:29:07;7.50;;;6.80;;
41952;SDS011;63613;28.200;112.870;2023-05-10T04:31:33;8.48;;;7.68;;
41952;SDS011;63613;28.200;112.870;2023-05-10T04:34:01;8.73;;;7.30;;
41952;SDS011;63613;28.200;112.870;2023-05-10T04:36:28;8.40;;;6.95;;
41952;SDS011;63613;28.200;112.870;2023-05-10T04:38:55;7.78;;;6.97;;
41952;SDS011;63613;28.200;112.870;2023-05-10T04:41:22;7.20;;;6.57;;
41952;SDS011;63613;28.200;112.870;2023-05-10T04:43:50;7.57;;;6.80;;
41952;SDS011;63613;28.200;112.870;2023-05-10T04:46:16;9.27;;;7.30;;
41952;SDS011;63613;28.200;112.870;2023-05-10T04:48:43;8.00;;;7.30;;
41952;SDS011;63613;28.200;112.870;2023-05-10T04:51:11;8.02;;;6.90;;
41952;SDS011;63613;28.200;112.870;2023-05-10T04:53:39;8.23;;;6.60;;
41952;SDS011;63613;28.200;112.870;2023-05-10T04:56:06;7.40;;;6.70;;
41952;SDS011;63613;28.200;112.870;2023-05-10T04:58:33;13.18;;;6.88;;
41952;SDS011;63613;28.200;112.870;2023-05-10T05:01:07;7.72;;;6.97;;
41952;SDS011;63613;28.200;112.870;2023-05-10T05:03:36;7.88;;;7.07;;
41952;SDS011;63613;28.200;112.870;2023-05-10T05:06:03;7.75;;;6.97;;
41952;SDS011;63613;28.200;112.870;2023-05-10T05:08:34;7.15;;;6.45;;
41952;SDS011;63613;28.200;112.870;2023-05-10T05:11:03;8.27;;;7.38;;
41952;SDS011;63613;28.200;112.870;2023-05-10T05:13:30;7.07;;;6.47;;
41952;SDS011;63613;28.200;112.870;2023-05-10T05:15:59;7.90;;;7.03;;
41952;SDS011;63613;28.200;112.870;2023-05-10T05:18:28;7.93;;;7.05;;
41952;SDS011;63613;28.200;112.870;2023-05-10T05:20:54;7.50;;;6.80;;
41952;SDS011;63613;28.200;112.870;2023-05-10T05:23:23;8.73;;;6.90;;
41952;SDS011;63613;28.200;112.870;2023-05-10T05:25:53;7.72;;;6.93;;
41952;SDS011;63613;28.200;112.870;2023-05-10T05:28:20;7.70;;;6.82;;
41952;SDS011;63613;28.200;112.870;2023-05-10T05:30:47;7.18;;;6.47;;
41952;SDS011;63613;28.200;112.870;2023-05-10T05:33:17;7.72;;;6.90;;
41952;SDS011;63613;28.200;112.870;2023-05-10T05:35:44;7.25;;;6.55;;
41952;SDS011;63613;28.200;112.870;2023-05-10T05:38:16;7.40;;;6.70;;
41952;SDS011;63613;28.200;112.870;2023-05-10T05:40:43;7.10;;;6.40;;
41952;SDS011;63613;28.200;112.870;2023-05-10T05:43:12;7.53;;;6.82;;
41952;SDS011;63613;28.200;112.870;2023-05-10T05:45:40;7.45;;;6.10;;
41952;SDS011;63613;28.200;112.870;2023-05-10T05:48:07;7.28;;;6.68;;
41952;SDS011;63613;28.200;112.870;2023-05-10T05:50:54;7.55;;;6.13;;
41952;SDS011;63613;28.200;112.870;2023-05-10T05:53:24;7.18;;;6.57;;
41952;SDS011;63613;28.200;112.870;2023-05-10T05:55:53;8.18;;;5.65;;
41952;SDS011;63613;28.200;112.870;2023-05-10T05:58:21;6.82;;;6.13;;
41952;SDS011;63613;28.200;112.870;2023-05-10T06:00:48;7.13;;;6.43;;
41952;SDS011;63613;28.200;112.870;2023-05-10T06:03:35;6.22;;;5.60;;
41952;SDS011;63613;28.200;112.870;2023-05-10T06:06:03;6.40;;;5.80;;
41952;SDS011;63613;28.200;112.870;2023-05-10T06:08:30;6.80;;;6.20;;
41952;SDS011;63613;28.200;112.870;2023-05-10T06:11:00;6.90;;;6.18;;
41952;SDS011;63613;28.200;112.870;2023-05-10T06:13:29;6.75;;;6.05;;
41952;SDS011;63613;28.200;112.870;2023-05-10T06:16:02;5.93;;;5.30;;
41952;SDS011;63613;28.200;112.870;2023-05-10T06:18:30;6.28;;;5.65;;
41952;SDS011;63613;28.200;112.870;2023-05-10T06:20:56;6.55;;;5.78;;
41952;SDS011;63613;28.200;112.870;2023-05-10T06:23:26;6.40;;;5.80;;
41952;SDS011;63613;28.200;112.870;2023-05-10T06:25:53;6.13;;;5.63;;
41952;SDS011;63613;28.200;112.870;2023-05-10T06:28:20;7.40;;;6.03;;
41952;SDS011;63613;28.200;112.870;2023-05-10T06:30:46;6.13;;;5.57;;
41952;SDS011;63613;28.200;112.870;2023-05-10T06:33:14;6.07;;;5.47;;
41952;SDS011;63613;28.200;112.870;2023-05-10T06:35:41;5.95;;;5.40;;
41952;SDS011;63613;28.200;112.870;2023-05-10T06:38:10;7.38;;;6.15;;
41952;SDS011;63613;28.200;112.870;2023-05-10T06:40:40;8.38;;;5.72;;
41952;SDS011;63613;28.200;112.870;2023-05-10T06:43:10;5.75;;;5.25;;
41952;SDS011;63613;28.200;112.870;2023-05-10T06:45:37;5.78;;;5.30;;
41952;SDS011;63613;28.200;112.870;2023-05-10T06:48:24;5.78;;;5.28;;
41952;SDS011;63613;28.200;112.870;2023-05-10T06:50:50;6.88;;;6.28;;
41952;SDS011;63613;28.200;112.870;2023-05-10T06:53:17;6.70;;;5.93;;
41952;SDS011;63613;28.200;112.870;2023-05-10T06:56:04;6.15;;;5.57;;
41952;SDS011;63613;28.200;112.870;2023-05-10T06:58:31;5.95;;;5.45;;
41952;SDS011;63613;28.200;112.870;2023-05-10T07:01:03;6.03;;;5.53;;
41952;SDS011;63613;28.200;112.870;2023-05-10T07:03:48;6.30;;;5.57;;
41952;SDS011;63613;28.200;112.870;2023-05-10T07:06:15;6.43;;;5.93;;
41952;SDS011;63613;28.200;112.870;2023-05-10T07:08:42;6.78;;;6.10;;
41952;SDS011;63613;28.200;112.870;2023-05-10T07:11:09;6.35;;;5.75;;
41952;SDS011;63613;28.200;112.870;2023-05-10T07:13:39;6.40;;;5.85;;
41952;SDS011;63613;28.200;112.870;2023-05-10T07:16:09;6.45;;;5.85;;
41952;SDS011;63613;28.200;112.870;2023-05-10T07:18:36;7.30;;;6.60;;
41952;SDS011;63613;28.200;112.870;2023-05-10T07:21:03;6.50;;;6.00;;
41952;SDS011;63613;28.200;112.870;2023-05-10T07:23:30;7.13;;;6.47;;
41952;SDS011;63613;28.200;112.870;2023-05-10T07:25:57;6.63;;;6.03;;
41952;SDS011;63613;28.200;112.870;2023-05-10T07:28:30;7.35;;;6.72;;
41952;SDS011;63613;28.200;112.870;2023-05-10T07:31:02;7.70;;;7.00;;
41952;SDS011;63613;28.200;112.870;2023-05-10T07:33:29;7.68;;;6.93;;
41952;SDS011;63613;28.200;112.870;2023-05-10T07:35:56;7.72;;;7.00;;
41952;SDS011;63613;28.200;112.870;2023-05-10T07:38:23;6.97;;;6.40;;
41952;SDS011;63613;28.200;112.870;2023-05-10T07:40:52;7.18;;;6.57;;
41952;SDS011;63613;28.200;112.870;2023-05-10T07:43:19;7.35;;;6.70;;
41952;SDS011;63613;28.200;112.870;2023-05-10T07:45:45;10.35;;;8.27;;
41952;SDS011;63613;28.200;112.870;2023-05-10T07:48:12;8.23;;;7.43;;
41952;SDS011;63613;28.200;112.870;2023-05-10T07:50:39;8.50;;;7.70;;
41952;SDS011;63613;28.200;112.870;2023-05-10T07:53:06;7.50;;;6.90;;
41952;SDS011;63613;28.200;112.870;2023-05-10T07:55:33;8.15;;;7.35;;
41952;SDS011;63613;28.200;112.870;2023-05-10T07:58:00;8.20;;;7.50;;
41952;SDS011;63613;28.200;112.870;2023-05-10T08:00:27;8.68;;;7.88;;
41952;SDS011;63613;28.200;112.870;2023-05-10T08:03:14;9.32;;;8.43;;
41952;SDS011;63613;28.200;112.870;2023-05-10T08:05:43;9.05;;;8.25;;
41952;SDS011;63613;28.200;112.870;2023-05-10T08:08:10;10.25;;;9.25;;
41952;SDS011;63613;28.200;112.870;2023-05-10T08:10:39;10.48;;;9.48;;
41952;SDS011;63613;28.200;112.870;2023-05-10T08:13:06;10.10;;;9.13;;
41952;SDS011;63613;28.200;112.870;2023-05-10T08:15:33;10.15;;;9.25;;
41952;SDS011;63613;28.200;112.870;2023-05-10T08:18:00;10.35;;;9.35;;
41952;SDS011;63613;28.200;112.870;2023-05-10T08:20:27;9.68;;;8.82;;
41952;SDS011;63613;28.200;112.870;2023-05-10T08:22:53;10.00;;;9.10;;
41952;SDS011;63613;28.200;112.870;2023-05-10T08:25:22;10.02;;;9.13;;
41952;SDS011;63613;28.200;112.870;2023-05-10T08:27:50;11.45;;;10.20;;
41952;SDS011;63613;28.200;112.870;2023-05-10T08:30:18;10.25;;;9.25;;
41952;SDS011;63613;28.200;112.870;2023-05-10T08:32:47;10.80;;;9.80;;
41952;SDS011;63613;28.200;112.870;2023-05-10T08:35:15;10.70;;;9.55;;
41952;SDS011;63613;28.200;112.870;2023-05-10T08:37:45;10.75;;;9.73;;
41952;SDS011;63613;28.200;112.870;2023-05-10T08:40:12;12.25;;;11.05;;
41952;SDS011;63613;28.200;112.870;2023-05-10T08:42:40;10.80;;;9.60;;
41952;SDS011;63613;28.200;112.870;2023-05-10T08:45:12;11.10;;;10.10;;
41952;SDS011;63613;28.200;112.870;2023-05-10T08:47:43;11.95;;;10.57;;
41952;SDS011;63613;28.200;112.870;2023-05-10T08:50:10;12.02;;;10.93;;
41952;SDS011;63613;28.200;112.870;2023-05-10T08:52:38;11.88;;;10.65;;
41952;SDS011;63613;28.200;112.870;2023-05-10T08:55:06;11.43;;;10.32;;
41952;SDS011;63613;28.200;112.870;2023-05-10T08:57:33;12.07;;;10.85;;
41952;SDS011;63613;28.200;112.870;2023-05-10T09:00:02;11.90;;;10.82;;
41952;SDS011;63613;28.200;112.870;2023-05-10T09:02:29;11.98;;;10.88;;
41952;SDS011;63613;28.200;112.870;2023-05-10T09:04:56;12.20;;;11.07;;
41952;SDS011;63613;28.200;112.870;2023-05-10T09:07:25;12.88;;;11.75;;
41952;SDS011;63613;28.200;112.870;2023-05-10T09:09:52;12.57;;;11.38;;
41952;SDS011;63613;28.200;112.870;2023-05-10T09:12:20;13.07;;;11.77;;
41952;SDS011;63613;28.200;112.870;2023-05-10T09:14:47;12.52;;;11.32;;
41952;SDS011;63613;28.200;112.870;2023-05-10T09:17:18;13.68;;;12.30;;
41952;SDS011;63613;28.200;112.870;2023-05-10T09:19:45;13.40;;;12.20;;
41952;SDS011;63613;28.200;112.870;2023-05-10T09:22:12;12.50;;;11.38;;
41952;SDS011;63613;28.200;112.870;2023-05-10T09:24:39;13.35;;;12.13;;
41952;SDS011;63613;28.200;112.870;2023-05-10T09:27:10;12.75;;;11.60;;
41952;SDS011;63613;28.200;112.870;2023-05-10T09:29:41;12.45;;;11.32;;
41952;SDS011;63613;28.200;112.870;2023-05-10T09:32:08;13.35;;;11.95;;
41952;SDS011;63613;28.200;112.870;2023-05-10T09:34:35;12.40;;;11.25;;
41952;SDS011;63613;28.200;112.870;2023-05-10T09:37:05;12.82;;;11.63;;
41952;SDS011;63613;28.200;112.870;2023-05-10T09:39:33;13.02;;;11.77;;
41952;SDS011;63613;28.200;112.870;2023-05-10T09:42:04;13.05;;;11.82;;
41952;SDS011;63613;28.200;112.870;2023-05-10T09:44:32;12.70;;;11.50;;
41952;SDS011;63613;28.200;112.870;2023-05-10T09:47:00;13.02;;;11.90;;
41952;SDS011;63613;28.200;112.870;2023-05-10T09:49:28;13.52;;;12.32;;
41952;SDS011;63613;28.200;112.870;2023-05-10T09:52:07;12.35;;;11.25;;
41952;SDS011;63613;28.200;112.870;2023-05-10T09:54:54;13.50;;;12.13;;
41952;SDS011;63613;28.200;112.870;2023-05-10T09:57:21;12.48;;;11.27;;
41952;SDS011;63613;28.200;112.870;2023-05-10T09:59:50;12.13;;;11.05;;
41952;SDS011;63613;28.200;112.870;2023-05-10T10:02:19;12.65;;;11.55;;
41952;SDS011;63613;28.200;112.870;2023-05-10T10:04:48;11.30;;;10.30;;
41952;SDS011;63613;28.200;112.870;2023-05-10T10:07:17;12.98;;;11.68;;
41952;SDS011;63613;28.200;112.870;2023-05-10T10:09:50;11.90;;;10.80;;
41952;SDS011;63613;28.200;112.870;2023-05-10T10:12:17;12.38;;;11.27;;
41952;SDS011;63613;28.200;112.870;2023-05-10T10:14:46;12.45;;;11.32;;
41952;SDS011;63613;28.200;112.870;2023-05-10T10:17:14;12.75;;;11.50;;
41952;SDS011;63613;28.200;112.870;2023-05-10T10:19:42;13.82;;;12.55;;
41952;SDS011;63613;28.200;112.870;2023-05-10T10:22:09;12.40;;;11.20;;
41952;SDS011;63613;28.200;112.870;2023-05-10T10:24:37;13.23;;;12.02;;
41952;SDS011;63613;28.200;112.870;2023-05-10T10:30:25;12.98;;;11.77;;
41952;SDS011;63613;28.200;112.870;2023-05-10T10:35:44;12.82;;;11.73;;
41952;SDS011;63613;28.200;112.870;2023-05-10T10:38:12;12.23;;;11.13;;
41952;SDS011;63613;28.200;112.870;2023-05-10T10:40:39;13.35;;;12.00;;
41952;SDS011;63613;28.200;112.870;2023-05-10T10:43:25;11.95;;;10.88;;
41952;SDS011;63613;28.200;112.870;2023-05-10T10:49:14;13.85;;;12.65;;
41952;SDS011;63613;28.200;112.870;2023-05-10T10:52:12;13.65;;;12.35;;
41952;SDS011;63613;28.200;112.870;2023-05-10T11:02:59;17.00;;;13.98;;
41952;SDS011;63613;28.200;112.870;2023-05-10T11:05:40;14.25;;;12.88;;
41952;SDS011;63613;28.200;112.870;2023-05-10T11:10:39;13.20;;;12.10;;
41952;SDS011;63613;28.200;112.870;2023-05-10T11:13:21;13.15;;;11.85;;
41952;SDS011;63613;28.200;112.870;2023-05-10T11:15:57;14.40;;;13.00;;
41952;SDS011;63613;28.200;112.870;2023-05-10T11:20:58;13.45;;;12.15;;
41952;SDS011;63613;28.200;112.870;2023-05-10T11:23:32;13.77;;;12.45;;
41952;SDS011;63613;28.200;112.870;2023-05-10T11:29:05;13.43;;;12.13;;
41952;SDS011;63613;28.200;112.870;2023-05-10T11:31:34;13.80;;;12.50;;
41952;SDS011;63613;28.200;112.870;2023-05-10T11:34:07;13.98;;;12.68;;
41952;SDS011;63613;28.200;112.870;2023-05-10T11:36:54;13.40;;;12.10;;
41952;SDS011;63613;28.200;112.870;2023-05-10T11:39:26;13.73;;;12.43;;
41952;SDS011;63613;28.200;112.870;2023-05-10T11:41:55;14.63;;;13.20;;
41952;SDS011;63613;28.200;112.870;2023-05-10T11:44:28;14.48;;;12.77;;
41952;SDS011;63613;28.200;112.870;2023-05-10T11:47:01;14.43;;;12.63;;
41952;SDS011;63613;28.200;112.870;2023-05-10T11:49:28;14.95;;;13.43;;
41952;SDS011;63613;28.200;112.870;2023-05-10T11:52:05;16.17;;;13.48;;
41952;SDS011;63613;28.200;112.870;2023-05-10T11:54:32;15.13;;;12.43;;
41952;SDS011;63613;28.200;112.870;2023-05-10T11:57:02;15.50;;;13.50;;
41952;SDS011;63613;28.200;112.870;2023-05-10T11:59:29;15.35;;;13.80;;
41952;SDS011;63613;28.200;112.870;2023-05-10T12:01:56;14.23;;;12.77;;
41952;SDS011;63613;28.200;112.870;2023-05-10T12:04:23;14.10;;;12.70;;
41952;SDS011;63613;28.200;112.870;2023-05-10T12:06:50;15.07;;;13.48;;
41952;SDS011;63613;28.200;112.870;2023-05-10T12:09:17;14.95;;;13.35;;
41952;SDS011;63613;28.200;112.870;2023-05-10T12:12:04;14.55;;;12.80;;
41952;SDS011;63613;28.200;112.870;2023-05-10T12:14:33;14.30;;;12.82;;
41952;SDS011;63613;28.200;112.870;2023-05-10T12:17:01;14.00;;;12.57;;
41952;SDS011;63613;28.200;112.870;2023-05-10T12:19:37;13.07;;;11.73;;
41952;SDS011;63613;28.200;112.870;2023-05-10T12:22:24;14.50;;;13.00;;
41952;SDS011;63613;28.200;112.870;2023-05-10T12:24:51;14.70;;;13.10;;
41952;SDS011;63613;28.200;112.870;2023-05-10T12:27:23;15.48;;;13.20;;
41952;SDS011;63613;28.200;112.870;2023-05-10T12:29:49;14.07;;;12.63;;
41952;SDS011;63613;28.200;112.870;2023-05-10T12:32:17;14.20;;;12.70;;
41952;SDS011;63613;28.200;112.870;2023-05-10T12:34:46;12.88;;;11.57;;
41952;SDS011;63613;28.200;112.870;2023-05-10T12:37:34;13.98;;;12.20;;
41952;SDS011;63613;28.200;112.870;2023-05-10T12:40:08;13.80;;;11.77;;
41952;SDS011;63613;28.200;112.870;2023-05-10T12:42:37;13.18;;;11.88;;
41952;SDS011;63613;28.200;112.870;2023-05-10T12:45:24;15.00;;;13.07;;
41952;SDS011;63613;28.200;112.870;2023-05-10T12:47:51;14.10;;;12.70;;
41952;SDS011;63613;28.200;112.870;2023-05-10T12:50:18;14.55;;;13.05;;
41952;SDS011;63613;28.200;112.870;2023-05-10T12:52:50;13.57;;;11.93;;
41952;SDS011;63613;28.200;112.870;2023-05-10T12:55:19;13.75;;;12.20;;
41952;SDS011;63613;28.200;112.870;2023-05-10T12:57:46;14.18;;;12.77;;
41952;SDS011;63613;28.200;112.870;2023-05-10T13:00:16;14.70;;;13.20;;
41952;SDS011;63613;28.200;112.870;2023-05-10T13:02:44;13.98;;;12.65;;
41952;SDS011;63613;28.200;112.870;2023-05-10T13:05:12;14.20;;;12.80;;
41952;SDS011;63613;28.200;112.870;2023-05-10T13:07:43;16.00;;;14.38;;
41952;SDS011;63613;28.200;112.870;2023-05-10T13:10:11;15.43;;;13.70;;
41952;SDS011;63613;28.200;112.870;2023-05-10T13:12:38;14.77;;;13.32;;
41952;SDS011;63613;28.200;112.870;2023-05-10T13:15:05;14.07;;;12.68;;
41952;SDS011;63613;28.200;112.870;2023-05-10T13:17:33;14.60;;;13.10;;
41952;SDS011;63613;28.200;112.870;2023-05-10T13:20:11;16.70;;;14.85;;
41952;SDS011;63613;28.200;112.870;2023-05-10T13:22:38;15.93;;;14.40;;
41952;SDS011;63613;28.200;112.870;2023-05-10T13:25:25;15.20;;;13.80;;
41952;SDS011;63613;28.200;112.870;2023-05-10T13:27:52;13.65;;;12.45;;
41952;SDS011;63613;28.200;112.870;2023-05-10T13:30:19;15.27;;;13.65;;
41952;SDS011;63613;28.200;112.870;2023-05-10T13:32:47;14.32;;;12.93;;
41952;SDS011;63613;28.200;112.870;2023-05-10T13:35:17;15.32;;;13.60;;
41952;SDS011;63613;28.200;112.870;2023-05-10T13:38:05;15.25;;;13.68;;
41952;SDS011;63613;28.200;112.870;2023-05-10T13:40:33;15.38;;;13.98;;
41952;SDS011;63613;28.200;112.870;2023-05-10T13:43:02;14.82;;;13.43;;
41952;SDS011;63613;28.200;112.870;2023-05-10T13:45:29;15.63;;;14.02;;
41952;SDS011;63613;28.200;112.870;2023-05-10T13:47:56;15.05;;;13.65;;
41952;SDS011;63613;28.200;112.870;2023-05-10T13:50:47;15.15;;;13.70;;
41952;SDS011;63613;28.200;112.870;2023-05-10T13:53:15;15.13;;;13.63;;
41952;SDS011;63613;28.200;112.870;2023-05-10T13:55:42;15.05;;;13.68;;
41952;SDS011;63613;28.200;112.870;2023-05-10T13:58:09;14.73;;;13.35;;
41952;SDS011;63613;28.200;112.870;2023-05-10T14:00:36;14.38;;;12.85;;
41952;SDS011;63613;28.200;112.870;2023-05-10T14:03:06;14.20;;;12.80;;
41952;SDS011;63613;28.200;112.870;2023-05-10T14:05:34;14.80;;;13.30;;
41952;SDS011;63613;28.200;112.870;2023-05-10T14:08:02;13.45;;;12.13;;
41952;SDS011;63613;28.200;112.870;2023-05-10T14:10:29;14.00;;;12.60;;
41952;SDS011;63613;28.200;112.870;2023-05-10T14:12:57;14.43;;;13.07;;
41952;SDS011;63613;28.200;112.870;2023-05-10T14:15:24;14.48;;;13.07;;
41952;SDS011;63613;28.200;112.870;2023-05-10T14:17:51;13.13;;;11.88;;
41952;SDS011;63613;28.200;112.870;2023-05-10T14:20:18;14.30;;;12.80;;
41952;SDS011;63613;28.200;112.870;2023-05-10T14:22:48;14.25;;;12.77;;
41952;SDS011;63613;28.200;112.870;2023-05-10T14:25:15;16.30;;;12.93;;
41952;SDS011;63613;28.200;112.870;2023-05-10T14:27:43;12.93;;;11.63;;
41952;SDS011;63613;28.200;112.870;2023-05-10T14:30:11;13.50;;;12.20;;
41952;SDS011;63613;28.200;112.870;2023-05-10T14:32:38;13.55;;;12.30;;
41952;SDS011;63613;28.200;112.870;2023-05-10T14:35:05;14.13;;;12.82;;
41952;SDS011;63613;28.200;112.870;2023-05-10T14:37:54;14.27;;;12.77;;
41952;SDS011;63613;28.200;112.870;2023-05-10T14:40:21;13.60;;;12.20;;
41952;SDS011;63613;28.200;112.870;2023-05-10T14:42:50;12.38;;;11.23;;
41952;SDS011;63613;28.200;112.870;2023-05-10T14:45:23;14.38;;;12.95;;
41952;SDS011;63613;28.200;112.870;2023-05-10T14:47:49;13.13;;;11.93;;
41952;SDS011;63613;28.200;112.870;2023-05-10T14:50:21;13.18;;;11.88;;
41952;SDS011;63613;28.200;112.870;2023-05-10T14:52:48;12.95;;;11.82;;
41952;SDS011;63613;28.200;112.870;2023-05-10T14:55:18;13.30;;;12.00;;
41952;SDS011;63613;28.200;112.870;2023-05-10T14:57:46;12.95;;;11.50;;
41952;SDS011;63613;28.200;112.870;2023-05-10T15:00:16;12.68;;;11.48;;
41952;SDS011;63613;28.200;112.870;2023-05-10T15:02:51;13.00;;;11.75;;
41952;SDS011;63613;28.200;112.870;2023-05-10T15:05:18;12.85;;;11.57;;
41952;SDS011;63613;28.200;112.870;2023-05-10T15:07:45;12.80;;;11.60;;
41952;SDS011;63613;28.200;112.870;2023-05-10T15:10:12;12.68;;;11.48;;